createdAt,value
2019-05-02T00:01:14.188Z,9.31
2019-05-02T00:03:48.515Z,9.29
2019-05-02T00:06:22.523Z,9.30
2019-05-02T00:08:56.651Z,9.27
2019-05-02T00:11:30.925Z,9.24
2019-05-02T00:14:06.152Z,9.22
2019-05-02T00:16:40.273Z,9.19
2019-05-02T00:19:14.253Z,9.17
2019-05-02T00:21:49.282Z,9.14
2019-05-02T00:24:23.320Z,9.12
2019-05-02T00:27:01.312Z,9.09
2019-05-02T00:29:31.317Z,9.10
2019-05-02T00:32:05.799Z,9.08
2019-05-02T00:34:39.855Z,9.05
2019-05-02T00:37:13.002Z,9.06
2019-05-02T00:39:49.311Z,9.06
2019-05-02T00:42:24.046Z,9.05
2019-05-02T00:44:58.255Z,9.05
2019-05-02T00:47:36.095Z,9.02
2019-05-02T00:50:32.477Z,9.00
2019-05-02T00:53:07.136Z,8.97
2019-05-02T00:55:42.143Z,8.95
2019-05-02T00:58:16.156Z,8.92
2019-05-02T01:00:53.186Z,8.86
2019-05-02T01:03:28.085Z,8.85
2019-05-02T01:06:02.370Z,8.80
2019-05-02T01:08:36.986Z,8.76
2019-05-02T01:11:11.269Z,8.74
2019-05-02T01:13:45.155Z,8.72
2019-05-02T01:16:20.324Z,8.68
2019-05-02T01:18:54.369Z,8.68
2019-05-02T01:21:28.410Z,8.66
2019-05-02T01:24:03.022Z,8.68
2019-05-02T01:26:41.249Z,8.71
2019-05-02T01:29:16.621Z,8.70
2019-05-02T01:31:54.744Z,8.70
2019-05-02T01:34:38.403Z,8.70
2019-05-02T01:37:29.990Z,8.68
2019-05-02T01:40:04.807Z,8.66
2019-05-02T01:42:40.215Z,8.66
2019-05-02T01:45:14.875Z,8.66
2019-05-02T01:47:48.970Z,8.69
2019-05-02T01:50:22.207Z,8.69
2019-05-02T01:52:58.529Z,8.72
2019-05-02T01:55:31.800Z,8.70
2019-05-02T01:58:05.927Z,8.71
2019-05-02T02:00:40.843Z,8.71
2019-05-02T02:03:14.911Z,8.71
2019-05-02T02:05:48.927Z,8.73
2019-05-02T02:08:22.144Z,8.73
2019-05-02T02:10:58.215Z,8.74
2019-05-02T02:13:36.542Z,8.74
2019-05-02T02:16:08.219Z,8.72
2019-05-02T02:18:46.538Z,8.74
2019-05-02T02:21:28.084Z,8.72
2019-05-02T02:24:21.237Z,8.68
2019-05-02T02:26:55.727Z,8.68
2019-05-02T02:29:29.888Z,8.68
2019-05-02T02:32:03.856Z,8.65
2019-05-02T02:34:37.773Z,8.64
2019-05-02T02:37:14.719Z,8.63
2019-05-02T02:39:48.384Z,8.59
2019-05-02T02:42:25.159Z,8.59
2019-05-02T02:45:00.339Z,8.57
2019-05-02T02:47:34.453Z,8.55
2019-05-02T02:50:07.693Z,8.52
2019-05-02T02:52:45.091Z,8.50
2019-05-02T02:55:22.024Z,8.47
2019-05-02T02:57:58.401Z,8.44
2019-05-02T03:00:29.040Z,8.42
2019-05-02T03:03:02.218Z,8.37
2019-05-02T03:05:36.029Z,8.35
2019-05-02T03:08:10.075Z,8.34
2019-05-02T03:10:45.061Z,8.34
2019-05-02T03:13:21.692Z,8.34
2019-05-02T03:16:00.408Z,8.33
2019-05-02T03:18:40.552Z,8.31
2019-05-02T03:21:13.634Z,8.31
2019-05-02T03:23:46.119Z,8.28
2019-05-02T03:26:20.247Z,8.29
2019-05-02T03:28:58.551Z,8.27
2019-05-02T03:31:31.539Z,8.26
2019-05-02T03:34:06.218Z,8.25
2019-05-02T03:36:40.425Z,8.23
2019-05-02T03:39:17.474Z,8.21
2019-05-02T03:41:55.831Z,8.18
2019-05-02T03:44:26.867Z,8.17
2019-05-02T03:47:01.820Z,8.16
2019-05-02T03:49:40.742Z,8.16
2019-05-02T03:52:12.130Z,8.14
2019-05-02T03:54:50.315Z,8.14
2019-05-02T03:57:31.687Z,8.18
2019-05-02T03:59:57.997Z,8.19
2019-05-02T04:02:32.453Z,8.22
2019-05-02T04:05:07.421Z,8.24
2019-05-02T04:07:42.341Z,8.24
2019-05-02T04:10:21.407Z,8.20
2019-05-02T04:12:58.400Z,8.19
2019-05-02T04:15:35.162Z,8.18
2019-05-02T04:18:08.302Z,8.13
2019-05-02T04:20:49.724Z,8.13
2019-05-02T04:23:27.830Z,8.11
2019-05-02T04:25:58.606Z,8.07
2019-05-02T04:28:34.183Z,8.04
2019-05-02T04:31:08.272Z,8.03
2019-05-02T04:33:41.658Z,8.00
2019-05-02T04:36:17.944Z,7.99
2019-05-02T04:38:52.686Z,7.98
2019-05-02T04:41:30.330Z,7.98
2019-05-02T04:44:02.877Z,8.01
2019-05-02T04:46:38.607Z,8.01
2019-05-02T04:49:11.764Z,8.05
2019-05-02T04:51:50.763Z,8.04
2019-05-02T04:54:25.824Z,8.04
2019-05-02T04:56:59.091Z,8.04
2019-05-02T04:59:33.414Z,8.05
2019-05-02T05:02:09.109Z,8.07
2019-05-02T05:04:48.712Z,8.09
2019-05-02T05:07:19.010Z,8.07
2019-05-02T05:10:00.847Z,8.06
2019-05-02T05:12:32.522Z,8.07
2019-05-02T05:15:07.848Z,8.06
2019-05-02T05:17:41.763Z,8.03
2019-05-02T05:20:15.982Z,8.04
2019-05-02T05:22:51.881Z,8.06
2019-05-02T05:25:37.922Z,8.04
2019-05-02T05:28:11.692Z,8.07
2019-05-02T05:30:46.723Z,8.06
2019-05-02T05:33:20.726Z,8.04
2019-05-02T05:35:53.944Z,8.01
2019-05-02T05:38:32.199Z,8.03
2019-05-02T05:41:08.904Z,8.01
2019-05-02T05:43:39.651Z,8.00
2019-05-02T05:46:13.308Z,7.99
2019-05-02T05:48:47.774Z,7.98
2019-05-02T05:51:21.903Z,7.96
2019-05-02T05:53:58.996Z,7.92
2019-05-02T05:56:32.575Z,7.91
2019-05-02T05:59:04.822Z,7.89
2019-05-02T06:01:39.174Z,7.88
2019-05-02T06:04:13.811Z,7.86
2019-05-02T06:06:48.981Z,7.86
2019-05-02T06:09:26.426Z,7.86
2019-05-02T06:11:58.799Z,7.87
2019-05-02T06:14:34.535Z,7.90
2019-05-02T06:17:08.875Z,7.92
2019-05-02T06:19:42.241Z,7.96
2019-05-02T06:22:24.162Z,8.00
2019-05-02T06:24:52.660Z,8.04
2019-05-02T06:27:30.263Z,8.07
2019-05-02T06:30:01.929Z,8.10
2019-05-02T06:32:36.173Z,8.10
2019-05-02T06:35:10.501Z,8.08
2019-05-02T06:37:45.374Z,8.09
2019-05-02T06:40:20.299Z,8.09
2019-05-02T06:42:53.881Z,8.10
2019-05-02T06:45:32.265Z,8.11
2019-05-02T06:48:04.017Z,8.11
2019-05-02T06:50:38.850Z,8.16
2019-05-02T06:53:13.057Z,8.21
2019-05-02T06:55:46.359Z,8.24
2019-05-02T06:58:20.294Z,8.29
2019-05-02T07:00:58.337Z,8.35
2019-05-02T07:03:30.419Z,8.39
2019-05-02T07:06:07.444Z,8.47
2019-05-02T07:08:40.527Z,8.51
2019-05-02T07:11:14.820Z,8.61
2019-05-02T07:13:49.035Z,8.59
2019-05-02T07:16:39.821Z,8.61
2019-05-02T07:19:27.378Z,8.62
2019-05-02T07:22:04.196Z,8.64
2019-05-02T07:24:36.719Z,8.65
2019-05-02T07:27:10.969Z,8.66
2019-05-02T07:29:45.393Z,8.71
2019-05-02T07:32:24.636Z,8.76
2019-05-02T07:34:55.407Z,8.81
2019-05-02T07:37:28.626Z,8.82
2019-05-02T07:40:02.701Z,8.81
2019-05-02T07:42:36.852Z,8.81
2019-05-02T07:45:12.675Z,8.78
2019-05-02T07:47:46.981Z,8.84
2019-05-02T07:50:21.851Z,8.93
2019-05-02T07:52:55.975Z,8.99
2019-05-02T07:55:30.734Z,9.04
2019-05-02T07:58:06.845Z,9.07
2019-05-02T08:00:41.277Z,9.07
2019-05-02T08:03:15.431Z,9.09
2019-05-02T08:05:49.414Z,9.14
2019-05-02T08:08:25.095Z,9.18
2019-05-02T08:11:01.682Z,9.19
2019-05-02T08:13:35.427Z,9.23
2019-05-02T08:16:09.881Z,9.25
2019-05-02T08:18:44.325Z,9.26
2019-05-02T08:21:19.047Z,9.31
2019-05-02T08:23:57.105Z,9.30
2019-05-02T08:26:30.685Z,9.29
2019-05-02T08:29:09.375Z,9.26
2019-05-02T08:31:43.575Z,9.27
2019-05-02T08:34:19.018Z,9.24
2019-05-02T08:36:53.021Z,9.23
2019-05-02T08:39:33.003Z,9.28
2019-05-02T08:42:03.127Z,9.30
2019-05-02T08:44:50.394Z,9.34
2019-05-02T08:47:19.110Z,9.38
2019-05-02T08:49:54.639Z,9.37
2019-05-02T08:52:25.841Z,9.40
2019-05-02T08:55:04.484Z,9.39
2019-05-02T08:57:36.376Z,9.38
2019-05-02T09:00:12.275Z,9.37
2019-05-02T09:02:46.514Z,9.41
2019-05-02T09:05:20.893Z,9.49
2019-05-02T09:07:54.867Z,9.53
2019-05-02T09:10:29.001Z,9.56
2019-05-02T09:13:02.698Z,9.58
2019-05-02T09:15:40.364Z,9.60
2019-05-02T09:18:13.136Z,9.63
2019-05-02T09:20:52.626Z,9.71
2019-05-02T09:23:27.574Z,9.79
2019-05-02T09:25:59.218Z,9.89
2019-05-02T09:28:32.757Z,10.21
2019-05-02T09:31:07.144Z,10.45
2019-05-02T09:33:45.604Z,10.66
2019-05-02T09:36:17.272Z,10.84
2019-05-02T09:38:53.987Z,10.84
2019-05-02T09:41:31.775Z,10.80
2019-05-02T09:44:03.356Z,10.78
2019-05-02T09:46:37.522Z,10.80
2019-05-02T09:49:15.761Z,10.68
2019-05-02T09:51:50.283Z,10.60
2019-05-02T09:54:23.290Z,10.46
2019-05-02T09:56:57.863Z,10.38
2019-05-02T09:59:33.207Z,10.30
2019-05-02T10:02:08.203Z,10.27
2019-05-02T10:04:44.104Z,10.16
2019-05-02T10:07:18.958Z,10.13
2019-05-02T10:09:57.619Z,10.20
2019-05-02T10:12:32.019Z,10.19
2019-05-02T10:15:08.597Z,10.38
2019-05-02T10:17:46.708Z,10.65
2019-05-02T10:20:23.482Z,10.83
2019-05-02T10:22:55.053Z,10.80
2019-05-02T10:25:32.826Z,10.81
2019-05-02T10:28:05.801Z,10.88
2019-05-02T10:30:39.973Z,10.82
2019-05-02T10:33:14.578Z,10.77
2019-05-02T10:35:52.289Z,10.67
2019-05-02T10:38:26.831Z,10.62
2019-05-02T10:41:02.625Z,10.52
2019-05-02T10:43:37.664Z,10.40
2019-05-02T10:46:22.989Z,10.29
2019-05-02T10:48:58.997Z,10.23
2019-05-02T10:51:34.890Z,10.19
2019-05-02T10:54:09.258Z,10.18
2019-05-02T10:56:43.445Z,10.18
2019-05-02T10:59:17.967Z,10.26
2019-05-02T11:02:10.271Z,10.39
2019-05-02T11:04:46.166Z,10.44
2019-05-02T11:07:22.779Z,10.51
2019-05-02T11:09:57.272Z,10.54
2019-05-02T11:12:41.862Z,10.47
2019-05-02T11:15:28.299Z,10.35
2019-05-02T11:18:02.498Z,10.19
2019-05-02T11:20:36.843Z,10.08
2019-05-02T11:23:12.677Z,10.01
2019-05-02T11:25:46.479Z,10.02
2019-05-02T11:28:22.037Z,9.99
2019-05-02T11:30:57.047Z,9.94
2019-05-02T11:33:32.577Z,9.98
2019-05-02T11:36:06.934Z,10.02
2019-05-02T11:38:45.140Z,10.08
2019-05-02T11:41:17.008Z,10.07
2019-05-02T11:43:54.112Z,10.08
2019-05-02T11:46:27.053Z,10.05
2019-05-02T11:49:02.374Z,10.20
2019-05-02T11:51:36.645Z,10.38
2019-05-02T11:54:10.366Z,10.54
2019-05-02T11:56:48.863Z,10.65
2019-05-02T11:59:27.597Z,10.64
2019-05-02T12:02:09.391Z,10.64
2019-05-02T12:04:47.329Z,10.63
2019-05-02T12:07:19.443Z,10.55
2019-05-02T12:09:56.986Z,10.55
2019-05-02T12:12:34.332Z,10.58
2019-05-02T12:15:06.467Z,10.65
2019-05-02T12:17:41.962Z,10.74
2019-05-02T12:20:16.175Z,10.69
2019-05-02T12:22:49.588Z,10.65
2019-05-02T12:25:23.943Z,10.64
2019-05-02T12:27:58.143Z,10.60
2019-05-02T12:30:34.178Z,10.63
2019-05-02T12:33:08.375Z,10.58
2019-05-02T12:35:43.396Z,10.58
2019-05-02T12:38:17.815Z,10.64
2019-05-02T12:40:52.175Z,10.54
2019-05-02T12:43:26.668Z,10.50
2019-05-02T12:46:02.233Z,10.56
2019-05-02T12:48:36.781Z,10.55
2019-05-02T12:51:12.702Z,10.54
2019-05-02T12:53:48.237Z,10.52
2019-05-02T12:56:23.000Z,10.52
2019-05-02T12:58:57.251Z,10.47
2019-05-02T13:01:32.979Z,10.40
2019-05-02T13:04:08.708Z,10.41
2019-05-02T13:06:42.693Z,10.46
2019-05-02T13:09:16.857Z,10.60
2019-05-02T13:11:58.547Z,10.72
2019-05-02T13:14:32.712Z,10.78
2019-05-02T13:17:07.606Z,10.78
2019-05-02T13:19:55.367Z,10.70
2019-05-02T13:22:19.342Z,10.58
2019-05-02T13:24:57.823Z,10.43
2019-05-02T13:27:42.869Z,10.27
2019-05-02T13:30:12.406Z,10.13
2019-05-02T13:32:52.848Z,9.96
2019-05-02T13:35:25.929Z,9.89
2019-05-02T13:38:02.752Z,9.99
2019-05-02T13:40:41.856Z,10.18
2019-05-02T13:43:16.209Z,10.26
2019-05-02T13:45:55.287Z,10.26
2019-05-02T13:48:29.713Z,10.33
2019-05-02T13:51:04.300Z,10.39
2019-05-02T13:53:39.749Z,10.34
2019-05-02T13:56:22.039Z,10.28
2019-05-02T13:58:56.183Z,10.25
2019-05-02T14:01:29.382Z,10.20
2019-05-02T14:04:10.116Z,10.19
2019-05-02T14:06:39.519Z,10.15
2019-05-02T14:09:19.856Z,10.12
2019-05-02T14:11:52.659Z,10.17
2019-05-02T14:14:26.863Z,10.27
2019-05-02T14:17:02.841Z,10.44
2019-05-02T14:19:36.993Z,10.66
2019-05-02T14:22:12.849Z,10.79
2019-05-02T14:24:47.003Z,10.84
2019-05-02T14:27:22.218Z,10.79
2019-05-02T14:29:56.341Z,10.71
2019-05-02T14:32:32.750Z,10.70
2019-05-02T14:35:18.734Z,10.70
2019-05-02T14:38:09.894Z,10.69
2019-05-02T14:40:52.181Z,10.70
2019-05-02T14:43:46.835Z,10.67
2019-05-02T14:46:22.132Z,10.67
2019-05-02T14:48:56.550Z,10.68
2019-05-02T14:51:32.684Z,10.66
2019-05-02T14:54:08.323Z,10.64
2019-05-02T14:56:47.881Z,10.57
2019-05-02T14:59:23.065Z,10.54
2019-05-02T15:02:05.744Z,10.51
2019-05-02T15:04:38.177Z,10.45
2019-05-02T15:07:10.293Z,10.40
2019-05-02T15:09:44.074Z,10.36
2019-05-02T15:12:19.106Z,10.60
2019-05-02T15:14:57.359Z,10.60
2019-05-02T15:17:36.326Z,10.78
2019-05-02T15:20:08.106Z,10.85
2019-05-02T15:22:42.557Z,10.88
2019-05-02T15:25:17.980Z,10.89
2019-05-02T15:27:58.560Z,10.80
2019-05-02T15:30:28.053Z,10.78
2019-05-02T15:33:03.697Z,10.75
2019-05-02T15:35:39.393Z,10.72
2019-05-02T15:38:24.198Z,10.72
2019-05-02T15:40:53.495Z,10.73
2019-05-02T15:43:27.080Z,10.71
2019-05-02T15:46:02.040Z,10.73
2019-05-02T15:48:36.179Z,10.71
2019-05-02T15:51:09.762Z,10.69
2019-05-02T15:54:04.454Z,10.67
2019-05-02T15:56:27.073Z,10.65
2019-05-02T15:59:03.412Z,10.62
2019-05-02T16:01:41.248Z,10.58
2019-05-02T16:04:24.059Z,10.57
2019-05-02T16:06:54.339Z,10.57
2019-05-02T16:09:28.589Z,10.56
2019-05-02T16:12:03.198Z,10.60
2019-05-02T16:14:37.418Z,10.58
2019-05-02T16:17:12.503Z,10.57
2019-05-02T16:19:48.485Z,10.57
2019-05-02T16:22:23.297Z,10.56
2019-05-02T16:24:57.417Z,10.51
2019-05-02T16:27:47.370Z,10.45
2019-05-02T16:30:24.006Z,10.44
2019-05-02T16:33:02.693Z,10.40
2019-05-02T16:35:37.102Z,10.34
2019-05-02T16:38:12.256Z,10.27
2019-05-02T16:40:48.019Z,10.20
2019-05-02T16:43:24.775Z,10.15
2019-05-02T16:45:58.696Z,10.11
2019-05-02T16:48:37.735Z,10.09
2019-05-02T16:51:27.585Z,10.10
2019-05-02T16:53:45.184Z,10.09
2019-05-02T16:56:19.561Z,10.09
2019-05-02T16:58:53.803Z,10.07
2019-05-02T17:01:28.565Z,10.03
2019-05-02T17:04:06.690Z,10.03
2019-05-02T17:06:39.802Z,10.01
2019-05-02T17:09:15.717Z,9.94
2019-05-02T17:11:49.845Z,9.85
2019-05-02T17:14:23.483Z,9.83
2019-05-02T17:16:58.529Z,9.77
2019-05-02T17:19:34.730Z,9.70
2019-05-02T17:22:08.967Z,9.63
2019-05-02T17:24:43.315Z,9.59
2019-05-02T17:27:20.635Z,9.58
2019-05-02T17:29:59.365Z,9.58
2019-05-02T17:32:34.079Z,9.57
2019-05-02T17:35:09.948Z,9.55
2019-05-02T17:37:48.605Z,9.50
2019-05-02T17:40:22.473Z,9.47
2019-05-02T17:42:57.118Z,9.47
2019-05-02T17:45:33.423Z,9.46
2019-05-02T17:48:15.883Z,9.44
2019-05-02T17:50:49.374Z,9.41
2019-05-02T17:53:22.487Z,9.42
2019-05-02T17:55:56.798Z,9.43
2019-05-02T17:58:31.786Z,9.43
2019-05-02T18:01:07.600Z,9.44
2019-05-02T18:03:42.493Z,9.42
2019-05-02T18:06:17.376Z,9.40
2019-05-02T18:08:55.290Z,9.38
2019-05-02T18:11:29.588Z,9.35
2019-05-02T18:14:10.098Z,9.33
2019-05-02T18:16:39.474Z,9.28
2019-05-02T18:19:15.991Z,9.24
2019-05-02T18:21:49.691Z,9.22
2019-05-02T18:24:24.045Z,9.22
2019-05-02T18:26:58.303Z,9.20
2019-05-02T18:29:36.215Z,9.16
2019-05-02T18:32:08.598Z,9.13
2019-05-02T18:34:42.725Z,9.11
2019-05-02T18:37:16.989Z,9.08
2019-05-02T18:39:55.756Z,9.05
2019-05-02T18:42:27.699Z,9.04
2019-05-02T18:45:03.685Z,9.04
2019-05-02T18:47:38.521Z,9.02
2019-05-02T18:50:27.405Z,9.01
2019-05-02T18:53:03.519Z,9.01
2019-05-02T18:55:38.202Z,9.00
2019-05-02T18:58:13.044Z,8.99
2019-05-02T19:00:47.644Z,9.00
2019-05-02T19:03:23.040Z,8.99
2019-05-02T19:05:58.477Z,9.01
2019-05-02T19:08:45.256Z,9.00
2019-05-02T19:11:12.317Z,8.98
2019-05-02T19:13:47.133Z,8.96
2019-05-02T19:16:24.997Z,8.94
2019-05-02T19:18:57.762Z,8.92
2019-05-02T19:21:36.146Z,8.92
2019-05-02T19:24:08.352Z,8.92
2019-05-02T19:26:49.215Z,8.90
2019-05-02T19:29:22.121Z,8.89
2019-05-02T19:31:56.972Z,8.88
2019-05-02T19:34:32.378Z,8.88
2019-05-02T19:37:06.756Z,8.90
2019-05-02T19:39:46.885Z,8.92
2019-05-02T19:42:22.656Z,8.92
2019-05-02T19:44:53.845Z,8.94
2019-05-02T19:47:28.056Z,8.90
2019-05-02T19:50:03.055Z,8.81
2019-05-02T19:52:40.523Z,8.81
2019-05-02T19:55:19.921Z,8.79
2019-05-02T19:57:52.278Z,8.72
2019-05-02T20:00:26.465Z,8.65
2019-05-02T20:03:01.758Z,8.64
2019-05-02T20:05:36.094Z,8.60
2019-05-02T20:08:14.843Z,8.56
2019-05-02T20:10:49.246Z,8.51
2019-05-02T20:13:28.258Z,8.50
2019-05-02T20:16:12.175Z,8.48
2019-05-02T20:18:47.323Z,8.47
2019-05-02T20:21:27.884Z,8.45
2019-05-02T20:24:04.257Z,8.45
2019-05-02T20:26:37.933Z,8.44
2019-05-02T20:29:11.999Z,8.44
2019-05-02T20:31:45.342Z,8.42
2019-05-02T20:34:19.819Z,8.42
2019-05-02T20:36:54.011Z,8.40
2019-05-02T20:39:28.176Z,8.37
2019-05-02T20:42:02.729Z,8.35
2019-05-02T20:44:36.955Z,8.36
2019-05-02T20:47:13.957Z,8.34
2019-05-02T20:49:48.283Z,8.33
2019-05-02T20:52:22.820Z,8.33
2019-05-02T20:54:56.831Z,8.34
2019-05-02T20:57:31.809Z,8.33
2019-05-02T21:00:12.236Z,8.32
2019-05-02T21:02:46.513Z,8.34
2019-05-02T21:05:23.848Z,8.34
2019-05-02T21:08:05.732Z,8.35
2019-05-02T21:10:41.784Z,8.35
2019-05-02T21:13:16.198Z,8.35
2019-05-02T21:15:52.242Z,8.37
2019-05-02T21:18:26.022Z,8.36
2019-05-02T21:20:59.367Z,8.34
2019-05-02T21:23:43.728Z,8.36
2019-05-02T21:26:09.755Z,8.33
2019-05-02T21:28:46.176Z,8.35
2019-05-02T21:31:20.135Z,8.35
2019-05-02T21:33:54.281Z,8.32
2019-05-02T21:36:28.239Z,8.30
2019-05-02T21:39:02.845Z,8.26
2019-05-02T21:41:37.318Z,8.26
2019-05-02T21:44:13.112Z,8.23
2019-05-02T21:46:47.615Z,8.24
2019-05-02T21:49:39.515Z,8.24
2019-05-02T21:52:17.884Z,8.22
2019-05-02T21:55:02.402Z,8.19
2019-05-02T21:57:36.961Z,8.17
2019-05-02T22:00:15.557Z,8.16
2019-05-02T22:02:52.220Z,8.14
2019-05-02T22:05:26.419Z,8.14
2019-05-02T22:08:00.571Z,8.13
2019-05-02T22:10:34.985Z,8.12
2019-05-02T22:13:09.199Z,8.14
2019-05-02T22:15:43.324Z,8.14
2019-05-02T22:18:17.479Z,8.13
2019-05-02T22:20:52.293Z,8.13
2019-05-02T22:23:26.611Z,8.12
2019-05-02T22:26:02.095Z,8.07
2019-05-02T22:28:36.219Z,8.08
2019-05-02T22:31:12.259Z,8.08
2019-05-02T22:33:46.558Z,8.09
2019-05-02T22:36:21.797Z,8.09
2019-05-02T22:38:57.445Z,8.09
2019-05-02T22:41:32.535Z,8.06
2019-05-02T22:44:07.155Z,8.04
2019-05-02T22:46:43.483Z,8.04
2019-05-02T22:49:17.914Z,8.03
2019-05-02T22:51:52.327Z,8.00
2019-05-02T22:54:30.335Z,7.97
2019-05-02T22:57:02.655Z,7.95
2019-05-02T22:59:36.794Z,7.94
2019-05-02T23:02:10.359Z,7.92
2019-05-02T23:04:44.433Z,7.91
2019-05-02T23:07:17.647Z,7.89
2019-05-02T23:09:52.800Z,7.86
2019-05-02T23:12:27.100Z,7.84
2019-05-02T23:15:01.953Z,7.83
2019-05-02T23:17:35.987Z,7.82
2019-05-02T23:20:09.504Z,7.79
2019-05-02T23:22:43.727Z,7.77
2019-05-02T23:25:35.569Z,7.75
2019-05-02T23:28:13.903Z,7.75
2019-05-02T23:30:47.966Z,7.74
2019-05-02T23:33:23.398Z,7.72
2019-05-02T23:35:57.359Z,7.68
2019-05-02T23:38:32.328Z,7.69
2019-05-02T23:41:06.940Z,7.66
2019-05-02T23:43:41.629Z,7.66
2019-05-02T23:46:16.301Z,7.65
2019-05-02T23:48:52.526Z,7.63
2019-05-02T23:51:26.524Z,7.60
2019-05-02T23:54:02.139Z,7.59
2019-05-02T23:56:36.369Z,7.57
2019-05-02T23:59:11.848Z,7.53
